createdAt,value
2023-03-01T00:01:36.549Z,92.64
2023-03-01T00:04:04.640Z,92.20
2023-03-01T00:06:32.974Z,91.82
2023-03-01T00:09:01.189Z,91.89
2023-03-01T00:11:31.743Z,91.99
2023-03-01T00:14:06.147Z,92.17
2023-03-01T00:16:46.736Z,92.31
2023-03-01T00:19:17.954Z,92.35
2023-03-01T00:21:46.474Z,92.20
2023-03-01T00:24:14.738Z,92.57
2023-03-01T00:26:42.604Z,92.61
2023-03-01T00:29:10.763Z,92.65
2023-03-01T00:31:38.687Z,92.75
2023-03-01T00:34:07.409Z,92.98
2023-03-01T00:36:37.593Z,92.87
2023-03-01T00:39:10.934Z,92.95
2023-03-01T00:41:39.045Z,93.15
2023-03-01T00:44:06.990Z,92.74
2023-03-01T00:46:37.649Z,92.67
2023-03-01T00:49:06.224Z,92.65
2023-03-01T00:51:34.604Z,92.43
2023-03-01T00:54:03.663Z,92.50
2023-03-01T00:56:32.443Z,92.72
2023-03-01T00:59:01.664Z,92.85
2023-03-01T01:01:31.909Z,92.75
2023-03-01T01:04:04.881Z,93.08
2023-03-01T01:06:36.523Z,93.24
2023-03-01T01:09:06.759Z,93.24
2023-03-01T01:11:36.492Z,93.34
2023-03-01T01:14:05.742Z,93.06
2023-03-01T01:16:34.415Z,93.04
2023-03-01T01:19:03.804Z,92.87
2023-03-01T01:21:32.177Z,93.10
2023-03-01T01:24:00.276Z,93.20
2023-03-01T01:26:31.618Z,93.11
2023-03-01T01:29:00.924Z,93.41
2023-03-01T01:31:29.852Z,93.65
2023-03-01T01:34:01.445Z,93.85
2023-03-01T01:36:29.927Z,93.51
2023-03-01T01:38:58.952Z,93.29
2023-03-01T01:41:29.290Z,93.40
2023-03-01T01:44:22.040Z,93.34
2023-03-01T01:46:51.851Z,93.46
2023-03-01T01:49:38.623Z,93.48
2023-03-01T01:52:21.726Z,93.65
2023-03-01T01:54:56.126Z,93.69
2023-03-01T01:57:33.907Z,93.49
2023-03-01T02:00:07.986Z,93.59
2023-03-01T02:02:44.388Z,93.76
2023-03-01T02:05:23.562Z,93.76
2023-03-01T02:07:52.095Z,93.74
2023-03-01T02:10:23.957Z,93.29
2023-03-01T02:12:53.596Z,93.26
2023-03-01T02:15:21.447Z,93.35
2023-03-01T02:17:49.885Z,93.39
2023-03-01T02:20:20.514Z,93.52
2023-03-01T02:22:49.831Z,93.57
2023-03-01T02:25:20.793Z,93.56
2023-03-01T02:28:17.001Z,93.67
2023-03-01T02:31:08.258Z,93.73
2023-03-01T02:33:38.826Z,93.37
2023-03-01T02:36:12.655Z,93.33
2023-03-01T02:38:42.246Z,93.08
2023-03-01T02:41:14.423Z,92.89
2023-03-01T02:43:43.077Z,92.93
2023-03-01T02:46:21.206Z,93.16
2023-03-01T02:48:52.009Z,93.47
2023-03-01T02:51:23.055Z,93.60
2023-03-01T02:54:06.300Z,93.55
2023-03-01T02:56:34.991Z,93.48
2023-03-01T02:59:04.865Z,93.60
2023-03-01T03:01:39.356Z,93.91
2023-03-01T03:04:12.987Z,94.24
2023-03-01T03:06:40.949Z,94.36
2023-03-01T03:09:09.165Z,94.30
2023-03-01T03:11:38.009Z,94.23
2023-03-01T03:14:06.869Z,94.16
2023-03-01T03:16:34.774Z,93.94
2023-03-01T03:19:06.162Z,93.66
2023-03-01T03:21:34.861Z,93.74
2023-03-01T03:24:02.985Z,93.71
2023-03-01T03:26:31.830Z,93.72
2023-03-01T03:28:59.949Z,93.84
2023-03-01T03:31:28.086Z,93.85
2023-03-01T03:33:56.949Z,93.89
2023-03-01T03:36:25.469Z,94.00
2023-03-01T03:38:53.733Z,93.86
2023-03-01T03:41:21.798Z,93.73
2023-03-01T03:43:50.130Z,93.43
2023-03-01T03:46:18.179Z,93.52
2023-03-01T03:48:46.893Z,93.55
2023-03-01T03:51:17.600Z,93.69
2023-03-01T03:53:46.671Z,93.61
2023-03-01T03:56:15.101Z,93.56
2023-03-01T03:58:43.048Z,93.88
2023-03-01T04:01:10.938Z,93.97
2023-03-01T04:03:38.903Z,94.12
2023-03-01T04:06:07.118Z,94.53
2023-03-01T04:08:35.151Z,94.94
2023-03-01T04:11:25.165Z,94.87
2023-03-01T04:13:56.137Z,94.37
2023-03-01T04:16:24.572Z,93.78
2023-03-01T04:18:54.653Z,93.56
2023-03-01T04:21:22.996Z,93.56
2023-03-01T04:23:53.666Z,93.51
2023-03-01T04:26:21.980Z,93.64
2023-03-01T04:28:51.473Z,93.70
2023-03-01T04:31:22.640Z,94.23
2023-03-01T04:33:56.397Z,94.46
2023-03-01T04:36:29.568Z,94.40
2023-03-01T04:38:58.593Z,94.26
2023-03-01T04:41:27.044Z,94.22
2023-03-01T04:43:55.159Z,94.34
2023-03-01T04:46:23.454Z,94.39
2023-03-01T04:48:51.435Z,94.36
2023-03-01T04:51:19.613Z,94.16
2023-03-01T04:53:48.524Z,94.25
2023-03-01T04:56:18.845Z,94.31
2023-03-01T04:58:47.669Z,94.30
2023-03-01T05:01:18.404Z,94.17
2023-03-01T05:03:51.635Z,94.44
2023-03-01T05:06:21.431Z,94.17
2023-03-01T05:08:50.414Z,93.96
2023-03-01T05:11:18.309Z,94.08
2023-03-01T05:13:46.367Z,94.17
2023-03-01T05:16:14.345Z,94.08
2023-03-01T05:18:42.641Z,94.15
2023-03-01T05:21:18.279Z,94.13
2023-03-01T05:23:46.322Z,94.09
2023-03-01T05:26:28.221Z,94.38
2023-03-01T05:28:57.942Z,94.79
2023-03-01T05:31:26.005Z,94.75
2023-03-01T05:33:54.094Z,94.83
2023-03-01T05:36:22.073Z,94.66
2023-03-01T05:38:49.919Z,94.67
2023-03-01T05:41:20.506Z,94.72
2023-03-01T05:43:48.426Z,94.80
2023-03-01T05:46:16.619Z,94.74
2023-03-01T05:48:44.878Z,94.74
2023-03-01T05:51:13.234Z,94.60
2023-03-01T05:53:41.203Z,94.63
2023-03-01T05:56:09.262Z,95.10
2023-03-01T05:58:39.719Z,95.22
2023-03-01T06:01:13.331Z,95.00
2023-03-01T06:03:41.345Z,95.02
2023-03-01T06:06:09.182Z,95.11
2023-03-01T06:08:37.005Z,95.26
2023-03-01T06:11:06.323Z,95.13
2023-03-01T06:13:34.250Z,95.22
2023-03-01T06:16:05.074Z,95.38
2023-03-01T06:18:33.334Z,95.53
2023-03-01T06:21:01.340Z,95.51
2023-03-01T06:23:29.438Z,95.27
2023-03-01T06:25:57.481Z,95.25
2023-03-01T06:28:25.454Z,95.26
2023-03-01T06:30:53.756Z,95.24
2023-03-01T06:33:23.068Z,95.53
2023-03-01T06:35:51.677Z,95.77
2023-03-01T06:38:20.112Z,96.13
2023-03-01T06:40:55.042Z,96.52
2023-03-01T06:43:24.566Z,96.68
2023-03-01T06:45:52.451Z,97.43
2023-03-01T06:48:20.414Z,97.43
2023-03-01T06:50:48.460Z,97.58
2023-03-01T06:53:16.421Z,97.67
2023-03-01T06:55:44.744Z,97.51
2023-03-01T06:58:12.898Z,97.79
2023-03-01T07:00:42.011Z,98.07
2023-03-01T07:03:10.105Z,98.12
2023-03-01T07:05:39.168Z,98.45
2023-03-01T07:08:07.431Z,98.47
2023-03-01T07:10:35.463Z,98.88
2023-03-01T07:13:03.451Z,98.88
2023-03-01T07:15:31.246Z,98.99
2023-03-01T07:17:59.443Z,99.15
2023-03-01T07:20:27.453Z,99.28
2023-03-01T07:22:57.498Z,99.27
2023-03-01T07:25:26.014Z,99.33
2023-03-01T07:27:55.022Z,99.59
2023-03-01T07:30:23.628Z,99.59
2023-03-01T07:32:53.547Z,99.42
2023-03-01T07:35:24.388Z,99.61
2023-03-01T07:37:52.729Z,99.64
2023-03-01T07:40:20.978Z,100.00
2023-03-01T07:42:48.935Z,100.00
2023-03-01T07:45:16.915Z,100.00
2023-03-01T07:47:44.855Z,100.00
2023-03-01T07:50:14.485Z,100.00
2023-03-01T07:52:42.381Z,100.00
2023-03-01T07:55:10.543Z,100.00
2023-03-01T07:57:39.460Z,100.00
2023-03-01T08:00:08.931Z,100.00
2023-03-01T08:02:43.113Z,100.00
2023-03-01T08:05:11.670Z,100.00
2023-03-01T08:07:39.547Z,100.00
2023-03-01T08:10:08.057Z,100.00
2023-03-01T08:12:36.188Z,100.00
2023-03-01T08:15:04.699Z,99.35
2023-03-01T08:17:32.660Z,99.95
2023-03-01T08:20:00.501Z,99.70
2023-03-01T08:22:28.335Z,99.95
2023-03-01T08:24:56.904Z,100.00
2023-03-01T08:27:25.631Z,98.88
2023-03-01T08:29:53.691Z,98.41
2023-03-01T08:32:21.988Z,99.80
2023-03-01T08:34:50.026Z,99.87
2023-03-01T08:37:18.099Z,98.93
2023-03-01T08:39:53.518Z,99.94
2023-03-01T08:42:21.401Z,99.54
2023-03-01T08:44:49.475Z,100.00
2023-03-01T08:47:18.584Z,99.97
2023-03-01T08:49:46.393Z,99.98
2023-03-01T08:52:14.445Z,99.50
2023-03-01T08:54:42.288Z,98.63
2023-03-01T08:57:10.789Z,98.23
2023-03-01T08:59:38.739Z,94.68
2023-03-01T09:02:13.506Z,84.77
2023-03-01T09:04:41.758Z,81.28
2023-03-01T09:07:11.094Z,79.45
2023-03-01T09:09:38.981Z,75.69
2023-03-01T09:12:07.223Z,73.68
2023-03-01T09:14:35.298Z,71.87
2023-03-01T09:17:04.201Z,72.42
2023-03-01T09:19:32.529Z,68.69
2023-03-01T09:22:00.544Z,70.02
2023-03-01T09:24:28.576Z,70.67
2023-03-01T09:26:58.052Z,71.48
2023-03-01T09:29:26.983Z,70.72
2023-03-01T09:31:56.501Z,70.21
2023-03-01T09:34:24.902Z,68.24
2023-03-01T09:36:53.099Z,69.32
2023-03-01T09:39:21.818Z,69.03
2023-03-01T09:42:05.669Z,65.58
2023-03-01T09:44:34.393Z,65.93
2023-03-01T09:47:03.689Z,66.01
2023-03-01T09:49:35.040Z,65.63
2023-03-01T09:52:20.313Z,64.61
2023-03-01T09:54:54.090Z,65.48
2023-03-01T09:57:42.523Z,67.45
2023-03-01T10:00:17.714Z,62.86
2023-03-01T10:03:29.957Z,63.04
2023-03-01T10:06:02.157Z,62.16
2023-03-01T10:08:48.863Z,63.55
2023-03-01T10:11:35.433Z,64.86
2023-03-01T10:14:20.749Z,64.76
2023-03-01T10:16:59.928Z,63.69
2023-03-01T10:19:33.563Z,63.23
2023-03-01T10:22:12.382Z,61.64
2023-03-01T10:24:40.398Z,62.16
2023-03-01T10:27:21.062Z,63.72
2023-03-01T10:30:22.127Z,63.73
2023-03-01T10:32:54.203Z,60.55
2023-03-01T10:35:26.093Z,59.16
2023-03-01T10:38:05.855Z,57.45
2023-03-01T10:40:35.685Z,58.80
2023-03-01T10:43:07.459Z,58.70
2023-03-01T10:45:40.642Z,59.33
2023-03-01T10:48:27.100Z,58.69
2023-03-01T10:51:01.181Z,58.38
2023-03-01T10:53:37.637Z,55.97
2023-03-01T10:56:07.405Z,57.67
2023-03-01T10:58:37.859Z,58.57
2023-03-01T11:01:16.541Z,57.25
2023-03-01T11:03:44.610Z,56.23
2023-03-01T11:06:12.436Z,57.69
2023-03-01T11:08:49.126Z,57.76
2023-03-01T11:11:36.098Z,58.78
2023-03-01T11:14:27.280Z,57.17
2023-03-01T11:17:12.966Z,58.13
2023-03-01T11:19:41.147Z,57.94
2023-03-01T11:22:22.281Z,58.41
2023-03-01T11:25:08.811Z,58.04
2023-03-01T11:27:43.049Z,58.24
2023-03-01T11:30:46.554Z,58.45
2023-03-01T11:33:38.279Z,57.55
2023-03-01T11:36:12.415Z,58.02
2023-03-01T11:38:40.804Z,57.72
2023-03-01T11:41:19.513Z,57.64
2023-03-01T11:43:50.688Z,57.90
2023-03-01T11:46:41.841Z,57.53
2023-03-01T11:49:31.626Z,55.59
2023-03-01T11:52:18.075Z,56.51
2023-03-01T11:54:54.996Z,56.50
2023-03-01T11:57:37.759Z,56.56
2023-03-01T12:00:32.456Z,54.00
2023-03-01T12:03:03.387Z,55.28
2023-03-01T12:05:40.219Z,55.48
2023-03-01T12:08:26.646Z,56.15
2023-03-01T12:11:27.884Z,56.31
2023-03-01T12:14:09.248Z,55.31
2023-03-01T12:16:40.560Z,56.09
2023-03-01T12:19:31.960Z,56.65
2023-03-01T12:22:10.278Z,57.82
2023-03-01T12:24:47.388Z,57.68
2023-03-01T12:27:41.482Z,55.68
2023-03-01T12:30:27.540Z,57.24
2023-03-01T12:33:20.193Z,54.90
2023-03-01T12:36:22.511Z,55.54
2023-03-01T12:39:00.434Z,55.17
2023-03-01T12:41:34.285Z,56.00
2023-03-01T12:44:05.086Z,55.49
2023-03-01T12:46:48.624Z,55.55
2023-03-01T12:49:22.364Z,56.31
2023-03-01T12:52:35.335Z,56.63
2023-03-01T12:55:09.824Z,57.47
2023-03-01T12:57:48.370Z,56.99
2023-03-01T13:00:31.884Z,57.11
2023-03-01T13:03:22.001Z,58.17
2023-03-01T13:06:18.063Z,57.98
2023-03-01T13:08:56.224Z,57.99
2023-03-01T13:11:25.113Z,58.10
2023-03-01T13:13:55.554Z,57.17
2023-03-01T13:16:44.088Z,57.98
2023-03-01T13:19:18.165Z,58.77
2023-03-01T13:21:47.966Z,58.95
2023-03-01T13:24:28.044Z,59.51
2023-03-01T13:27:08.162Z,59.41
2023-03-01T13:29:45.143Z,59.26
2023-03-01T13:32:37.888Z,59.30
2023-03-01T13:35:17.971Z,59.98
2023-03-01T13:37:46.828Z,60.02
2023-03-01T13:40:19.562Z,60.06
2023-03-01T13:43:05.594Z,60.20
2023-03-01T13:45:41.241Z,60.99
2023-03-01T13:48:15.965Z,60.79
2023-03-01T13:50:52.561Z,60.00
2023-03-01T13:53:24.223Z,60.82
2023-03-01T13:55:58.740Z,61.63
2023-03-01T13:58:34.092Z,62.03
2023-03-01T14:01:03.504Z,62.32
2023-03-01T14:03:34.029Z,62.41
2023-03-01T14:06:14.964Z,62.84
2023-03-01T14:08:46.259Z,63.35
2023-03-01T14:11:14.301Z,63.59
2023-03-01T14:14:03.908Z,64.09
2023-03-01T14:16:53.834Z,64.29
2023-03-01T14:19:35.128Z,64.44
2023-03-01T14:22:26.329Z,64.62
2023-03-01T14:25:00.544Z,64.45
2023-03-01T14:27:42.982Z,65.05
2023-03-01T14:30:22.916Z,65.10
2023-03-01T14:33:00.183Z,65.30
2023-03-01T14:35:31.018Z,65.20
2023-03-01T14:37:59.196Z,65.20
2023-03-01T14:40:37.993Z,65.44
2023-03-01T14:43:12.599Z,65.67
2023-03-01T14:45:40.780Z,65.97
2023-03-01T14:48:09.226Z,66.04
2023-03-01T14:50:43.377Z,66.25
2023-03-01T14:53:21.399Z,66.57
2023-03-01T14:55:53.303Z,66.65
2023-03-01T14:58:24.625Z,66.80
2023-03-01T15:01:01.836Z,66.86
2023-03-01T15:03:45.005Z,67.03
2023-03-01T15:06:17.854Z,67.23
2023-03-01T15:08:48.979Z,67.20
2023-03-01T15:11:28.132Z,67.38
2023-03-01T15:13:56.273Z,67.60
2023-03-01T15:16:31.184Z,67.86
2023-03-01T15:19:01.626Z,67.81
2023-03-01T15:21:38.909Z,68.10
2023-03-01T15:24:20.487Z,68.22
2023-03-01T15:27:03.031Z,68.36
2023-03-01T15:29:34.424Z,68.51
2023-03-01T15:32:25.820Z,68.60
2023-03-01T15:34:53.844Z,68.64
2023-03-01T15:37:45.134Z,68.54
2023-03-01T15:40:22.496Z,68.64
2023-03-01T15:42:50.865Z,68.84
2023-03-01T15:45:21.703Z,69.03
2023-03-01T15:47:53.758Z,69.26
2023-03-01T15:50:24.442Z,69.35
2023-03-01T15:52:52.979Z,69.57
2023-03-01T15:55:23.997Z,69.79
2023-03-01T15:58:01.677Z,69.70
2023-03-01T16:00:30.324Z,69.94
2023-03-01T16:02:58.471Z,70.12
2023-03-01T16:05:32.134Z,70.41
2023-03-01T16:08:00.083Z,70.62
2023-03-01T16:10:28.865Z,70.72
2023-03-01T16:12:57.060Z,70.89
2023-03-01T16:15:31.248Z,71.26
2023-03-01T16:18:01.068Z,71.60
2023-03-01T16:20:33.443Z,71.31
2023-03-01T16:23:03.967Z,71.69
2023-03-01T16:25:33.347Z,71.68
2023-03-01T16:28:05.132Z,71.70
2023-03-01T16:30:36.240Z,71.65
2023-03-01T16:33:19.220Z,71.72
2023-03-01T16:35:52.629Z,72.03
2023-03-01T16:38:20.481Z,71.98
2023-03-01T16:40:50.632Z,72.42
2023-03-01T16:43:19.211Z,72.72
2023-03-01T16:45:47.770Z,72.81
2023-03-01T16:48:15.903Z,72.99
2023-03-01T16:50:43.871Z,72.98
2023-03-01T16:53:12.083Z,73.18
2023-03-01T16:55:46.442Z,73.80
2023-03-01T16:58:16.565Z,74.25
2023-03-01T17:00:44.483Z,74.13
2023-03-01T17:03:14.893Z,74.27
2023-03-01T17:05:42.993Z,74.65
2023-03-01T17:08:10.910Z,75.17
2023-03-01T17:10:38.942Z,75.37
2023-03-01T17:13:06.805Z,75.68
2023-03-01T17:15:34.782Z,75.72
2023-03-01T17:18:03.830Z,76.37
2023-03-01T17:20:31.858Z,76.78
2023-03-01T17:22:59.833Z,76.85
2023-03-01T17:25:28.741Z,76.95
2023-03-01T17:27:56.835Z,77.20
2023-03-01T17:30:24.841Z,77.06
2023-03-01T17:32:55.859Z,77.16
2023-03-01T17:35:24.116Z,76.94
2023-03-01T17:37:52.012Z,76.98
2023-03-01T17:40:20.082Z,77.21
2023-03-01T17:42:47.977Z,77.43
2023-03-01T17:45:15.960Z,77.63
2023-03-01T17:47:43.993Z,77.54
2023-03-01T17:50:12.523Z,77.84
2023-03-01T17:52:44.029Z,78.21
2023-03-01T17:55:12.325Z,78.73
2023-03-01T17:57:41.621Z,79.05
2023-03-01T18:00:14.639Z,79.16
2023-03-01T18:02:43.234Z,79.00
2023-03-01T18:05:11.765Z,78.87
2023-03-01T18:07:39.828Z,79.16
2023-03-01T18:10:08.710Z,78.98
2023-03-01T18:12:36.689Z,79.02
2023-03-01T18:15:08.286Z,79.30
2023-03-01T18:17:36.290Z,80.01
2023-03-01T18:20:07.233Z,80.13
2023-03-01T18:22:35.359Z,80.26
2023-03-01T18:25:05.203Z,80.52
2023-03-01T18:27:33.567Z,80.68
2023-03-01T18:30:01.702Z,80.81
2023-03-01T18:32:29.916Z,81.14
2023-03-01T18:34:58.050Z,80.94
2023-03-01T18:37:26.043Z,80.95
2023-03-01T18:39:54.609Z,80.96
2023-03-01T18:42:22.720Z,81.40
2023-03-01T18:44:51.109Z,81.66
2023-03-01T18:47:19.153Z,81.80
2023-03-01T18:49:47.240Z,82.11
2023-03-01T18:52:15.211Z,82.25
2023-03-01T18:54:43.062Z,82.61
2023-03-01T18:57:11.208Z,83.03
2023-03-01T18:59:39.260Z,82.81
2023-03-01T19:02:07.359Z,83.27
2023-03-01T19:04:35.397Z,83.25
2023-03-01T19:07:04.075Z,83.51
2023-03-01T19:09:32.058Z,83.47
2023-03-01T19:12:02.030Z,83.12
2023-03-01T19:14:30.188Z,83.89
2023-03-01T19:16:58.169Z,83.61
2023-03-01T19:19:26.207Z,83.76
2023-03-01T19:22:05.043Z,83.78
2023-03-01T19:24:35.192Z,83.96
2023-03-01T19:27:03.323Z,84.05
2023-03-01T19:29:31.412Z,84.50
2023-03-01T19:31:59.651Z,84.67
2023-03-01T19:34:27.670Z,84.73
2023-03-01T19:36:55.804Z,84.82
2023-03-01T19:39:23.644Z,85.18
2023-03-01T19:41:52.087Z,85.49
2023-03-01T19:44:24.908Z,85.34
2023-03-01T19:46:53.934Z,85.30
2023-03-01T19:49:21.795Z,85.47
2023-03-01T19:51:49.831Z,85.60
2023-03-01T19:54:21.814Z,85.79
2023-03-01T19:56:51.345Z,86.41
2023-03-01T19:59:24.442Z,86.91
2023-03-01T20:01:52.776Z,87.60
2023-03-01T20:04:20.942Z,87.43
2023-03-01T20:06:49.445Z,87.32
2023-03-01T20:09:21.898Z,87.41
2023-03-01T20:11:51.672Z,87.47
2023-03-01T20:14:21.093Z,87.23
2023-03-01T20:16:52.153Z,87.23
2023-03-01T20:19:20.942Z,87.30
2023-03-01T20:21:49.233Z,87.52
2023-03-01T20:24:17.291Z,88.12
2023-03-01T20:26:45.668Z,88.47
2023-03-01T20:29:13.762Z,88.81
2023-03-01T20:31:42.653Z,88.64
2023-03-01T20:34:10.811Z,88.78
2023-03-01T20:36:39.508Z,88.71
2023-03-01T20:39:08.065Z,88.80
2023-03-01T20:41:35.960Z,88.69
2023-03-01T20:44:06.684Z,88.70
2023-03-01T20:46:36.461Z,88.99
2023-03-01T20:49:05.683Z,88.97
2023-03-01T20:51:33.664Z,89.27
2023-03-01T20:54:01.524Z,89.42
2023-03-01T20:56:29.448Z,89.76
2023-03-01T20:59:05.800Z,90.31
2023-03-01T21:01:34.154Z,90.37
2023-03-01T21:04:02.428Z,90.47
2023-03-01T21:06:31.568Z,90.05
2023-03-01T21:08:59.971Z,90.27
2023-03-01T21:11:27.888Z,90.02
2023-03-01T21:13:56.737Z,90.04
2023-03-01T21:16:25.721Z,90.06
2023-03-01T21:18:53.769Z,90.26
2023-03-01T21:21:24.081Z,90.19
2023-03-01T21:23:53.872Z,90.38
2023-03-01T21:26:25.060Z,90.50
2023-03-01T21:28:58.763Z,90.62
2023-03-01T21:31:29.080Z,90.79
2023-03-01T21:34:00.078Z,91.01
2023-03-01T21:36:29.437Z,91.20
2023-03-01T21:39:00.901Z,91.46
2023-03-01T21:41:32.443Z,91.33
2023-03-01T21:44:03.131Z,91.17
2023-03-01T21:46:36.490Z,91.22
2023-03-01T21:49:05.465Z,91.29
2023-03-01T21:51:33.744Z,91.36
2023-03-01T21:54:02.171Z,91.37
2023-03-01T21:56:34.529Z,91.55
2023-03-01T21:59:02.609Z,91.84
2023-03-01T22:01:31.363Z,91.83
2023-03-01T22:04:01.157Z,91.82
2023-03-01T22:06:41.286Z,92.09
2023-03-01T22:09:14.968Z,91.90
2023-03-01T22:11:46.833Z,91.75
2023-03-01T22:14:16.392Z,91.70
2023-03-01T22:16:45.770Z,91.67
2023-03-01T22:19:15.985Z,91.97
2023-03-01T22:21:46.613Z,92.17
2023-03-01T22:24:15.122Z,92.60
2023-03-01T22:26:45.234Z,92.41
2023-03-01T22:29:19.393Z,92.36
2023-03-01T22:31:48.001Z,92.42
2023-03-01T22:34:17.339Z,92.71
2023-03-01T22:36:46.317Z,92.79
2023-03-01T22:39:16.226Z,92.82
2023-03-01T22:41:46.203Z,92.96
2023-03-01T22:44:22.883Z,92.79
2023-03-01T22:46:50.910Z,92.71
2023-03-01T22:49:19.762Z,92.76
2023-03-01T22:51:48.255Z,93.18
2023-03-01T22:54:18.741Z,92.99
2023-03-01T22:56:46.779Z,92.76
2023-03-01T22:59:16.700Z,93.11
2023-03-01T23:01:48.111Z,93.17
2023-03-01T23:04:17.669Z,93.24
2023-03-01T23:06:54.116Z,93.24
2023-03-01T23:09:30.919Z,93.74
2023-03-01T23:12:00.881Z,93.82
2023-03-01T23:14:31.718Z,93.58
2023-03-01T23:17:03.300Z,93.64
2023-03-01T23:19:32.109Z,93.67
2023-03-01T23:22:00.416Z,93.79
2023-03-01T23:24:31.978Z,93.78
2023-03-01T23:27:02.165Z,93.78
2023-03-01T23:29:31.242Z,93.98
2023-03-01T23:32:00.143Z,94.18
2023-03-01T23:34:28.935Z,94.17
2023-03-01T23:36:58.146Z,94.27
2023-03-01T23:39:26.368Z,94.38
2023-03-01T23:41:54.175Z,94.21
2023-03-01T23:44:23.165Z,94.24
2023-03-01T23:46:51.319Z,94.23
2023-03-01T23:49:22.408Z,94.21
2023-03-01T23:51:50.788Z,94.34
2023-03-01T23:54:22.423Z,94.51
2023-03-01T23:56:50.443Z,94.53
2023-03-01T23:59:21.973Z,94.64
